METAR Data
IDs: Format: Raw Decoded Include TAF

Data at: 0207 UTC 20 Jan 2022

KLXV 200153Z AUTO 35005KT 10SM BKN050 M08/M14 A3010 RMK AO2 SLP216 T10781139
KLXV 200053Z AUTO 35009G15KT 10SM CLR M07/M16 A3008 RMK AO2 SLP206 T10671156
KLXV 192353Z AUTO 32010KT 10SM CLR M05/M15 A3006 RMK AO2 SLP192 T10501150 11006 21050 53009
KLXV 192253Z AUTO 32009KT 10SM CLR M03/M16 A3004 RMK AO2 SLP167 T10281156
KLXV 192153Z AUTO 33010G16KT 10SM CLR M02/M16 A3003 RMK AO2 SLP157 T10171161
KLXV 192053Z AUTO 30009KT 10SM CLR M02/M16 A3002 RMK AO2 SLP151 T10171161 56008
KLXV 191953Z AUTO 31011KT 10SM CLR M02/M16 A3003 RMK AO2 SLP144 T10171156
KLXV 191853Z AUTO 32013G17KT 10SM CLR M02/M16 A3004 RMK AO2 SLP144 T10171156
KLXV 191753Z AUTO 36007KT 10SM CLR M02/M15 A3005 RMK AO2 SLP144 T10221150 11022 21161 50003
KLXV 191653Z AUTO 02008KT 10SM CLR M06/M16 A3006 RMK AO2 SLP161 T10611156
KLXV 191553Z AUTO 05007KT 10SM FEW110 M09/M17 A3005 RMK AO2 SLP167 T10941172
KLXV 191453Z AUTO 05008KT 10SM CLR M14/M19 A3004 RMK AO2 SLP181 T11441189 52006
KLXV 191353Z AUTO 00000KT 10SM CLR M15/M19 A3003 RMK AO2 SLP176 T11501194
KLXV 191253Z AUTO 06007KT 10SM CLR M14/M19 A3002 RMK AO2 SLP170 T11441194
KLXV 191153Z AUTO 05005KT 10SM CLR M16/M19 A3001 RMK AO2 SLP162 T11561189 11072 21156 50001
KLXV 191053Z AUTO 04005KT 10SM CLR M13/M18 A3002 RMK AO2 SLP141 T11331178
KLXV 190953Z AUTO 05004KT 10SM CLR M13/M18 A3002 RMK AO2 SLP145 T11281178
KLXV 190853Z AUTO 06003KT 10SM SCT055 M12/M17 A3001 RMK AO2 SLP132 T11171172 58002
KLXV 190753Z AUTO 06004KT 10SM CLR M09/M17 A3001 RMK AO2 SLP118 T10941167
KLXV 190653Z AUTO 07007KT 10SM SCT120 M08/M16 A3002 RMK AO2 SLP127 T10831161 400281128
KLXV 190553Z AUTO 03005KT 10SM OVC110 M07/M16 A3001 RMK AO2 SLP121 T10721156 11011 21072 52006
KLXV 190453Z AUTO 02007KT 10SM OVC110 M06/M16 A3001 RMK AO2 SLP128 T10611156
KLXV 190353Z AUTO 01007KT 10SM OVC080 M05/M16 A3000 RMK AO2 SLP139 T10501161
KLXV 190253Z AUTO 36006KT 10SM OVC075 M05/M16 A2999 RMK AO2 SLP154 T10501156 51012
KLXV 190153Z AUTO 34006KT 10SM OVC090 M04/M16 A2998 RMK AO2 SLP142 T10441156
KLXV 190053Z AUTO 36003KT 10SM CLR M03/M17 A2996 RMK AO2 SLP130 T10331172
KLXV 182353Z AUTO 29004KT 10SM BKN100 OVC120 M01/M18 A2994 RMK AO2 SLP100 T10111183 10028 21011 53001
KLXV 182253Z AUTO 33007KT 10SM CLR 02/M19 A2993 RMK AO2 SLP087 T00221194
KLXV 182153Z AUTO 33008G15KT 10SM CLR 01/M21 A2993 RMK AO2 SLP086 T00061206
KLXV 182053Z AUTO 34009G17KT 10SM CLR 01/M22 A2994 RMK AO2 SLP089 T00111217 56014
KLXV 181953Z AUTO 34006G15KT 10SM CLR 02/M22 A2995 RMK AO2 SLP088 T00221217
KLXV 181853Z AUTO 32011KT 10SM CLR 00/M23 A2997 RMK AO2 SLP108 T00001228
KLXV 181753Z AUTO VRB04KT 10SM CLR 00/M22 A2999 RMK AO2 SLP118 T00001222 10000 21128 50003
KLXV 181653Z AUTO 36008KT 10SM CLR M03/M21 A3000 RMK AO2 SLP125 T10281206
KLXV 181553Z AUTO 04008KT 10SM CLR M08/M22 A2999 RMK AO2 SLP130 T10781217
KLXV 181453Z AUTO 07006KT 10SM CLR M12/M21 A2998 RMK AO2 SLP151 T11221211 53003